Time;durP1;ratioP1;P1;durP2;ratioP2;P2;SDS_P1;SDS_P2;PMS_P1;PMS_P2;Temp;Humidity;BMP_temperature;BMP_pressure;BME280_temperature;BME280_humidity;BME280_pressure;Samples;Min_cycle;Max_cycle;Signal;HPM_P1;HPM_P2
2022/04/23 00:02:10;;;;;;;27.80;15.35;;;3.30;99.90;;;;;;5053240;28;20474;-74
2022/04/23 00:04:36;;;;;;;28.70;15.95;;;3.30;99.90;;;;;;5054621;28;20025;-74
2022/04/23 00:07:02;;;;;;;26.85;15.93;;;3.30;99.90;;;;;;5053264;28;20111;-74
2022/04/23 00:09:28;;;;;;;26.38;16.50;;;3.30;99.90;;;;;;5054390;28;20545;-75
2022/04/23 00:11:55;;;;;;;28.55;18.40;;;3.30;99.90;;;;;;5053891;28;20155;-73
2022/04/23 00:14:22;;;;;;;27.33;16.35;;;3.20;99.90;;;;;;5054430;28;20028;-74
2022/04/23 00:16:50;;;;;;;26.75;15.65;;;3.20;99.90;;;;;;5054291;28;20139;-74
2022/04/23 00:19:19;;;;;;;31.58;17.45;;;3.20;99.90;;;;;;5054389;28;20017;-74
2022/04/23 00:21:45;;;;;;;25.58;15.77;;;3.10;99.90;;;;;;5052975;28;20099;-74
2022/04/23 00:24:10;;;;;;;24.42;15.75;;;3.10;99.90;;;;;;5054239;28;20021;-74
2022/04/23 00:26:36;;;;;;;30.30;18.13;;;3.10;99.90;;;;;;5054120;28;20026;-73
2022/04/23 00:29:01;;;;;;;24.52;15.00;;;3.10;99.90;;;;;;5054111;28;20044;-75
2022/04/23 00:31:27;;;;;;;23.63;14.40;;;3.10;99.90;;;;;;5052742;28;20448;-74
2022/04/23 00:33:53;;;;;;;23.08;13.95;;;3.10;99.90;;;;;;5054051;28;20475;-75
2022/04/23 00:36:19;;;;;;;25.70;15.77;;;3.10;99.90;;;;;;5053986;28;20096;-74
2022/04/23 00:38:49;;;;;;;23.52;15.07;;;3.00;99.90;;;;;;5052583;28;20466;-74
2022/04/23 00:44:00;;;;;;;21.80;13.88;;;3.00;99.90;;;;;;5054313;28;20063;-74
2022/04/23 00:46:26;;;;;;;23.80;13.20;;;3.00;99.90;;;;;;5053812;28;20063;-74
2022/04/23 00:48:51;;;;;;;21.58;14.05;;;3.00;99.90;;;;;;5052328;28;20481;-75
2022/04/23 00:51:17;;;;;;;21.20;12.43;;;3.00;99.90;;;;;;5053482;28;20462;-75
2022/04/23 00:53:44;;;;;;;21.92;13.00;;;2.90;99.90;;;;;;5052403;28;20021;-74
2022/04/23 00:56:10;;;;;;;22.33;14.13;;;2.90;99.90;;;;;;5052232;28;20017;-75
2022/04/23 00:58:36;;;;;;;21.67;13.95;;;2.90;99.90;;;;;;5053547;28;20021;-75
2022/04/23 01:01:02;;;;;;;20.02;13.63;;;2.90;99.90;;;;;;5052173;28;20391;-75
2022/04/23 01:03:27;;;;;;;23.42;12.70;;;2.90;99.90;;;;;;5052168;28;20056;-75
2022/04/23 01:05:55;;;;;;;23.42;14.52;;;2.90;99.90;;;;;;5052220;28;20040;-75
2022/04/23 01:08:20;;;;;;;21.00;12.88;;;2.90;99.90;;;;;;5052030;28;20029;-75
2022/04/23 01:10:48;;;;;;;22.02;14.07;;;2.90;99.90;;;;;;5053204;28;20035;-74
2022/04/23 01:13:15;;;;;;;22.15;12.95;;;2.90;99.90;;;;;;5053304;28;20021;-74
2022/04/23 01:15:55;;;;;;;27.75;14.07;;;2.90;99.90;;;;;;5053135;28;20057;-75
2022/04/23 01:18:21;;;;;;;19.00;13.05;;;2.90;99.90;;;;;;5053509;28;20379;-75
2022/04/23 01:20:47;;;;;;;23.80;14.85;;;2.80;99.90;;;;;;5051878;28;20037;-75
2022/04/23 01:23:13;;;;;;;26.55;14.95;;;2.80;99.90;;;;;;5052425;28;20021;-75
2022/04/23 01:25:39;;;;;;;23.80;14.05;;;2.80;99.90;;;;;;5053158;28;20103;-74
2022/04/23 01:28:06;;;;;;;25.65;15.50;;;2.80;99.90;;;;;;5053114;28;20117;-75
2022/04/23 01:30:32;;;;;;;22.98;13.68;;;2.80;99.90;;;;;;5051807;28;20120;-74
2022/04/23 01:32:57;;;;;;;24.50;13.95;;;2.70;99.90;;;;;;5053171;28;20053;-74
2022/04/23 01:35:23;;;;;;;27.10;15.30;;;2.70;99.90;;;;;;5053088;28;20017;-75
2022/04/23 01:37:49;;;;;;;23.85;14.98;;;2.60;99.90;;;;;;5051757;28;20102;-75
2022/04/23 01:40:16;;;;;;;26.35;14.65;;;2.60;99.90;;;;;;5051702;28;20064;-74
2022/04/23 01:42:42;;;;;;;26.52;15.13;;;2.50;99.90;;;;;;5052995;28;20028;-74
2022/04/23 01:45:08;;;;;;;27.15;15.18;;;2.50;99.90;;;;;;5053042;28;20119;-75
2022/04/23 01:47:34;;;;;;;26.45;15.07;;;2.50;99.90;;;;;;5051518;28;20107;-75
2022/04/23 01:49:59;;;;;;;26.90;16.05;;;2.40;99.90;;;;;;5051677;28;20063;-75
2022/04/23 01:52:25;;;;;;;24.75;14.23;;;2.40;99.90;;;;;;5053089;28;20395;-74
2022/04/23 01:54:50;;;;;;;23.17;14.20;;;2.30;99.90;;;;;;5052862;28;20387;-74
2022/04/23 01:57:16;;;;;;;25.02;14.57;;;2.30;99.90;;;;;;5052956;28;20029;-74
2022/04/23 01:59:41;;;;;;;25.42;15.43;;;2.20;99.90;;;;;;5052887;28;20036;-75
2022/04/23 02:02:07;;;;;;;21.40;14.25;;;2.20;99.90;;;;;;5051609;28;20032;-73
2022/04/23 02:04:33;;;;;;;24.15;14.25;;;2.00;99.90;;;;;;5052804;28;20372;-74
2022/04/23 02:06:58;;;;;;;24.85;16.48;;;2.00;99.90;;;;;;5052509;28;20052;-74
2022/04/23 02:09:24;;;;;;;26.30;14.60;;;1.90;99.90;;;;;;5052692;28;20061;-74
2022/04/23 02:11:49;;;;;;;50.08;23.50;;;1.90;99.90;;;;;;5052640;28;20040;-74
2022/04/23 02:14:15;;;;;;;47.95;22.45;;;1.80;99.90;;;;;;5052645;28;20470;-75
2022/04/23 02:16:41;;;;;;;34.53;19.45;;;1.80;99.90;;;;;;5052489;28;20084;-75
2022/04/23 02:19:07;;;;;;;35.97;16.80;;;1.80;99.90;;;;;;5052625;28;20121;-74
2022/04/23 02:21:32;;;;;;;33.55;17.98;;;1.80;99.90;;;;;;5051325;28;20408;-75
2022/04/23 02:23:58;;;;;;;29.50;15.20;;;1.80;99.90;;;;;;5052521;28;20035;-75
2022/04/23 02:26:24;;;;;;;27.35;14.55;;;1.80;99.90;;;;;;5052726;28;20082;-74
2022/04/23 02:28:50;;;;;;;25.35;15.80;;;1.80;99.90;;;;;;5051192;28;20389;-74
2022/04/23 02:31:16;;;;;;;30.17;17.38;;;1.80;99.90;;;;;;5051290;28;20402;-74
2022/04/23 02:33:42;;;;;;;32.75;17.85;;;1.80;99.90;;;;;;5053684;28;20025;-74
2022/04/23 02:36:08;;;;;;;33.88;19.10;;;1.80;99.90;;;;;;5056266;28;20509;-74
2022/04/23 02:38:34;;;;;;;39.17;21.77;;;1.90;99.90;;;;;;5056126;28;20509;-74
2022/04/23 02:41:00;;;;;;;39.08;21.30;;;1.90;99.90;;;;;;5056188;28;20389;-74
2022/04/23 02:43:26;;;;;;;41.22;21.73;;;1.90;99.90;;;;;;5056250;28;20017;-75
2022/04/23 02:45:52;;;;;;;39.75;21.98;;;2.00;99.90;;;;;;5056028;28;20021;-73
2022/04/23 02:48:18;;;;;;;30.83;18.88;;;2.00;99.90;;;;;;5054578;28;20029;-74
2022/04/23 02:50:44;;;;;;;21.38;12.73;;;1.90;99.90;;;;;;5054574;28;20079;-74
2022/04/23 02:53:10;;;;;;;21.50;13.75;;;1.80;99.90;;;;;;5054737;28;20021;-74
2022/04/23 02:55:37;;;;;;;23.75;13.85;;;1.80;99.90;;;;;;5054526;28;20044;-74
2022/04/23 02:58:07;;;;;;;25.52;15.13;;;1.70;99.90;;;;;;5055844;28;20023;-75
2022/04/23 03:00:34;;;;;;;27.02;16.52;;;1.60;99.90;;;;;;5054474;28;20032;-74
2022/04/23 03:03:00;;;;;;;30.23;15.45;;;1.60;99.90;;;;;;5054421;28;20021;-75
2022/04/23 03:05:26;;;;;;;22.60;13.32;;;1.50;99.90;;;;;;5055657;28;20033;-74
2022/04/23 03:07:53;;;;;;;32.80;18.15;;;1.40;99.90;;;;;;5055385;28;20082;-74
2022/04/23 03:10:19;;;;;;;29.27;18.65;;;1.30;99.90;;;;;;5055506;28;20056;-73
2022/04/23 03:12:45;;;;;;;33.03;18.95;;;1.30;99.90;;;;;;5054100;28;20040;-74
2022/04/23 03:15:13;;;;;;;33.63;19.45;;;1.20;99.90;;;;;;5055160;28;20039;-74
2022/04/23 03:17:39;;;;;;;32.17;20.90;;;1.30;99.90;;;;;;5055489;28;20102;-73
2022/04/23 03:20:07;;;;;;;34.38;20.25;;;1.20;99.90;;;;;;5055503;28;20013;-74
2022/04/23 03:22:33;;;;;;;37.40;19.95;;;1.20;99.90;;;;;;5053921;28;20021;-74
2022/04/23 03:24:59;;;;;;;34.25;19.40;;;1.20;99.90;;;;;;5055183;28;20029;-74
2022/04/23 03:27:25;;;;;;;29.65;18.35;;;1.20;99.90;;;;;;5055284;28;20025;-74
2022/04/23 03:29:50;;;;;;;35.78;19.95;;;1.10;99.90;;;;;;5053969;28;20033;-74
2022/04/23 03:32:17;;;;;;;32.53;18.73;;;1.10;99.90;;;;;;5055205;28;20052;-73
2022/04/23 03:34:42;;;;;;;33.70;19.63;;;1.10;99.90;;;;;;5055010;28;20532;-74
2022/04/23 03:37:09;;;;;;;31.88;18.90;;;1.00;99.90;;;;;;5053827;28;20029;-73
2022/04/23 03:39:35;;;;;;;34.55;20.33;;;0.90;99.90;;;;;;5055030;28;20032;-74
2022/04/23 03:42:02;;;;;;;36.67;21.92;;;0.90;99.90;;;;;;5055091;28;20100;-74
2022/04/23 03:44:31;;;;;;;39.53;20.95;;;0.90;99.90;;;;;;5053419;28;20021;-74
2022/04/23 03:47:01;;;;;;;36.15;20.17;;;0.80;99.90;;;;;;5054265;28;20060;-73
2022/04/23 03:49:27;;;;;;;32.75;19.75;;;0.80;99.90;;;;;;5054786;28;20063;-73
2022/04/23 03:51:52;;;;;;;36.85;20.90;;;0.80;99.90;;;;;;5055013;28;20067;-74
2022/04/23 03:54:18;;;;;;;34.47;21.02;;;0.70;99.90;;;;;;5054768;28;20048;-74
2022/04/23 03:56:45;;;;;;;34.35;19.88;;;0.70;99.90;;;;;;5053435;28;20383;-74
2022/04/23 03:59:11;;;;;;;31.98;19.55;;;0.70;99.90;;;;;;5054739;28;20021;-73
2022/04/23 04:01:36;;;;;;;32.88;19.35;;;0.70;99.90;;;;;;5053361;28;20107;-73
2022/04/23 04:04:02;;;;;;;35.40;19.08;;;0.70;99.90;;;;;;5054678;28;20025;-74
2022/04/23 04:06:28;;;;;;;29.35;17.50;;;0.70;99.90;;;;;;5054482;28;20068;-73
2022/04/23 04:08:55;;;;;;;36.58;19.30;;;0.70;99.90;;;;;;5053215;28;20056;-74
2022/04/23 04:11:21;;;;;;;35.20;18.83;;;0.60;99.90;;;;;;5053239;28;20025;-74
2022/04/23 04:13:47;;;;;;;35.10;20.58;;;0.70;99.90;;;;;;5053189;28;20029;-74
2022/04/23 04:16:13;;;;;;;35.13;20.08;;;0.70;99.90;;;;;;5054235;28;20143;-74
2022/04/23 04:18:39;;;;;;;35.83;19.58;;;0.80;99.90;;;;;;5054264;28;20028;-74
2022/04/23 04:21:06;;;;;;;40.53;21.75;;;0.90;99.90;;;;;;5054337;28;20029;-73
2022/04/23 04:23:31;;;;;;;39.70;21.13;;;0.90;99.90;;;;;;5054307;28;20040;-75
2022/04/23 04:25:57;;;;;;;36.40;19.40;;;0.90;99.90;;;;;;5054109;28;20033;-73
2022/04/23 04:28:23;;;;;;;36.28;20.42;;;1.00;99.90;;;;;;5054173;28;20554;-74
2022/04/23 04:33:33;;;;;;;34.10;18.55;;;1.20;99.90;;;;;;5054427;28;20036;-74
2022/04/23 04:35:58;;;;;;;36.13;19.20;;;1.30;99.90;;;;;;5049541;28;20021;-74
2022/04/23 04:38:24;;;;;;;35.78;20.67;;;1.40;99.90;;;;;;5043567;28;20104;-73
2022/04/23 04:40:50;;;;;;;35.85;19.33;;;1.40;99.90;;;;;;5040732;28;20021;-75
2022/04/23 04:43:16;;;;;;;34.90;17.90;;;1.50;99.90;;;;;;5043578;28;20386;-75
2022/04/23 04:45:41;;;;;;;33.00;18.73;;;1.50;99.90;;;;;;5043575;28;20021;-74
2022/04/23 04:48:07;;;;;;;37.85;22.42;;;1.60;99.90;;;;;;5043889;28;20039;-75
2022/04/23 04:50:33;;;;;;;43.92;22.50;;;1.70;99.90;;;;;;5045605;28;20029;-74
2022/04/23 04:52:59;;;;;;;47.53;26.10;;;1.80;99.90;;;;;;5043438;28;20056;-74
2022/04/23 04:55:24;;;;;;;44.60;24.05;;;1.90;99.90;;;;;;5040723;28;20448;-74
2022/04/23 04:57:50;;;;;;;43.30;23.10;;;2.00;99.90;;;;;;5042599;28;20079;-74
2022/04/23 05:00:18;;;;;;;39.55;22.13;;;2.10;99.90;;;;;;5042392;28;20064;-74
2022/04/23 05:02:43;;;;;;;37.90;21.58;;;2.10;99.90;;;;;;5041179;28;20070;-74
2022/04/23 05:05:09;;;;;;;38.38;21.95;;;2.30;99.90;;;;;;5043447;28;20029;-75
2022/04/23 05:07:35;;;;;;;35.45;20.33;;;2.40;99.90;;;;;;5039125;28;20096;-75
2022/04/23 05:10:01;;;;;;;40.78;22.65;;;2.50;99.90;;;;;;5040778;28;20047;-75
2022/04/23 05:12:27;;;;;;;41.38;22.95;;;2.70;99.90;;;;;;5043187;28;20025;-74
2022/04/23 05:14:52;;;;;;;38.88;23.25;;;2.90;99.90;;;;;;5043941;28;20126;-74
2022/04/23 05:17:18;;;;;;;37.95;22.42;;;3.00;99.90;;;;;;5039807;28;20286;-75
2022/04/23 05:19:44;;;;;;;35.72;20.83;;;3.20;99.90;;;;;;5043169;28;20422;-75
2022/04/23 05:22:10;;;;;;;39.00;21.65;;;3.30;99.90;;;;;;5041257;28;20022;-75
2022/04/23 05:24:35;;;;;;;41.03;21.25;;;3.50;99.90;;;;;;5043582;28;20017;-76
2022/04/23 05:27:01;;;;;;;38.90;22.02;;;3.70;99.90;;;;;;5040912;28;20518;-74
2022/04/23 05:29:27;;;;;;;36.60;22.38;;;3.90;99.90;;;;;;5042136;28;20067;-75
2022/04/23 05:31:52;;;;;;;37.63;22.83;;;4.00;99.90;;;;;;5043454;28;20025;-75
2022/04/23 05:34:18;;;;;;;39.63;23.13;;;4.20;99.90;;;;;;5041748;28;20025;-75
2022/04/23 05:36:44;;;;;;;35.90;20.48;;;4.40;99.90;;;;;;5041070;28;20052;-75
2022/04/23 05:39:10;;;;;;;29.83;16.98;;;4.60;99.90;;;;;;5042101;28;20028;-75
2022/04/23 05:41:36;;;;;;;22.90;14.85;;;4.80;99.90;;;;;;5041371;28;20025;-75
2022/04/23 05:44:01;;;;;;;21.17;12.52;;;5.10;99.90;;;;;;5042748;28;20049;-75
2022/04/23 05:46:28;;;;;;;18.10;11.45;;;5.40;99.90;;;;;;5042127;28;20522;-75
2022/04/23 05:48:55;;;;;;;21.55;12.70;;;5.60;99.90;;;;;;5043290;28;20107;-75
2022/04/23 05:51:20;;;;;;;20.42;10.25;;;5.80;99.90;;;;;;5043328;28;20029;-75
2022/04/23 05:53:46;;;;;;;13.75;10.05;;;6.00;99.90;;;;;;5044745;28;20025;-75
2022/04/23 05:56:12;;;;;;;14.90;9.07;;;6.10;99.60;;;;;;5052646;28;20023;-75
2022/04/23 05:58:37;;;;;;;13.65;8.93;;;6.20;97.90;;;;;;5048740;28;20032;-75
2022/04/23 06:01:03;;;;;;;13.77;8.93;;;6.40;97.80;;;;;;5040529;28;20025;-75
2022/04/23 06:03:29;;;;;;;9.82;7.20;;;6.40;94.90;;;;;;5042664;28;20394;-75
2022/04/23 06:05:56;;;;;;;9.50;6.70;;;6.70;94.80;;;;;;5032050;28;20026;-75
2022/04/23 06:08:22;;;;;;;9.43;7.07;;;6.80;91.80;;;;;;5033509;28;20037;-75
2022/04/23 06:10:48;;;;;;;16.73;6.93;;;6.90;90.50;;;;;;5035189;28;20080;-75
2022/04/23 06:13:13;;;;;;;9.88;6.70;;;7.00;86.80;;;;;;5069282;28;20029;-75
2022/04/23 06:15:39;;;;;;;8.80;6.15;;;7.10;86.90;;;;;;5054137;28;20052;-74
2022/04/23 06:18:05;;;;;;;8.65;5.28;;;7.30;85.60;;;;;;5055348;28;20036;-74
2022/04/23 06:20:30;;;;;;;8.32;6.43;;;7.40;81.50;;;;;;5055034;28;20136;-74
2022/04/23 06:22:56;;;;;;;8.98;6.50;;;7.50;79.70;;;;;;5054810;28;20037;-75
2022/04/23 06:25:21;;;;;;;7.60;5.72;;;7.50;79.20;;;;;;5053105;28;20033;-74
2022/04/23 06:27:47;;;;;;;8.15;6.10;;;7.60;79.70;;;;;;5053963;28;20025;-74
2022/04/23 06:30:13;;;;;;;8.65;6.32;;;7.80;77.70;;;;;;5053950;28;20040;-74
2022/04/23 06:32:39;;;;;;;10.45;6.35;;;7.80;74.20;;;;;;5054217;28;20025;-74
2022/04/23 06:35:06;;;;;;;7.72;5.70;;;8.00;74.10;;;;;;5054845;28;20695;-74
2022/04/23 06:37:36;;;;;;;7.40;5.80;;;7.90;73.40;;;;;;5055387;28;20017;-75
2022/04/23 06:40:03;;;;;;;7.25;5.35;;;8.00;73.20;;;;;;5053029;28;20467;-74
2022/04/23 06:42:29;;;;;;;4.80;4.30;;;8.10;71.50;;;;;;5055156;28;20024;-74
2022/04/23 06:44:54;;;;;;;7.70;5.50;;;8.30;71.50;;;;;;5054684;28;20099;-75
2022/04/23 06:47:20;;;;;;;6.25;4.40;;;8.30;70.30;;;;;;5053836;28;20017;-74
2022/04/23 06:49:45;;;;;;;7.35;5.20;;;8.40;70.60;;;;;;5055162;28;20076;-75
2022/04/23 06:52:11;;;;;;;7.93;5.78;;;8.60;72.20;;;;;;5054941;28;20036;-74
2022/04/23 06:54:36;;;;;;;8.60;6.03;;;8.80;70.70;;;;;;5054290;28;20053;-74
2022/04/23 06:57:02;;;;;;;7.72;5.57;;;8.80;69.60;;;;;;5052934;28;20036;-75
2022/04/23 06:59:28;;;;;;;5.22;4.72;;;8.90;69.30;;;;;;5053792;28;20105;-75
2022/04/23 07:01:53;;;;;;;5.28;4.78;;;8.80;68.40;;;;;;5053082;28;20041;-75
2022/04/23 07:04:19;;;;;;;7.78;5.82;;;8.90;68.30;;;;;;5053485;28;20032;-74
2022/04/23 07:06:44;;;;;;;7.45;5.30;;;8.80;69.20;;;;;;5054237;28;20041;-75
2022/04/23 07:09:10;;;;;;;8.02;6.07;;;8.80;68.90;;;;;;5052896;28;20566;-74
2022/04/23 07:11:35;;;;;;;9.77;5.95;;;8.90;69.00;;;;;;5054597;28;20560;-74
2022/04/23 07:14:01;;;;;;;6.85;5.35;;;8.90;68.30;;;;;;5054575;28;20021;-74
2022/04/23 07:16:27;;;;;;;8.18;4.90;;;9.40;69.30;;;;;;5054152;28;20139;-75
2022/04/23 07:18:52;;;;;;;5.93;4.60;;;9.40;66.60;;;;;;5054372;28;20032;-75
2022/04/23 07:21:19;;;;;;;5.55;4.63;;;9.60;66.30;;;;;;5052934;28;20045;-75
2022/04/23 07:24:03;;;;;;;7.05;5.57;;;9.60;65.60;;;;;;5052735;28;20032;-75
2022/04/23 07:26:29;;;;;;;5.80;4.93;;;9.70;65.90;;;;;;5053812;28;20108;-75
2022/04/23 07:28:55;;;;;;;7.88;5.25;;;9.70;65.30;;;;;;5052891;28;20037;-75
2022/04/23 07:31:21;;;;;;;7.18;5.22;;;9.80;65.40;;;;;;5052917;28;20037;-76
2022/04/23 07:39:15;;;;;;;6.53;4.97;;;10.00;64.00;;;;;;5053941;28;20493;-75
2022/04/23 07:41:40;;;;;;;7.10;5.43;;;10.30;63.50;;;;;;5052608;28;20108;-75
2022/04/23 07:44:06;;;;;;;7.10;5.43;;;10.30;63.00;;;;;;5054080;28;20025;-75
2022/04/23 07:46:31;;;;;;;5.05;4.43;;;10.70;62.30;;;;;;5051937;28;20037;-76
2022/04/23 07:48:58;;;;;;;5.80;5.05;;;11.10;61.90;;;;;;5048745;28;20109;-74
2022/04/23 07:51:26;;;;;;;5.82;4.88;;;11.20;60.90;;;;;;5051834;28;20041;-76
2022/04/23 07:53:53;;;;;;;8.48;5.60;;;11.10;62.20;;;;;;5053307;28;20021;-76
2022/04/23 07:56:18;;;;;;;6.25;5.65;;;10.60;62.70;;;;;;5053240;28;20048;-76
2022/04/23 07:58:44;;;;;;;7.32;5.35;;;10.60;63.10;;;;;;5051482;28;20445;-76
2022/04/23 08:01:09;;;;;;;6.90;5.75;;;10.60;63.30;;;;;;5051710;28;20481;-76
2022/04/23 08:03:35;;;;;;;8.23;5.63;;;10.70;63.10;;;;;;5053410;28;20052;-76
2022/04/23 08:06:00;;;;;;;5.53;4.45;;;10.70;63.30;;;;;;5052444;28;20027;-77
2022/04/23 08:08:26;;;;;;;7.05;5.72;;;11.00;63.60;;;;;;5052535;28;20124;-76
2022/04/23 08:10:52;;;;;;;6.63;5.55;;;11.10;61.60;;;;;;5051468;28;20462;-76
2022/04/23 08:13:17;;;;;;;6.40;5.80;;;10.90;60.70;;;;;;5051551;28;20068;-76
2022/04/23 08:15:43;;;;;;;5.50;4.78;;;10.80;62.30;;;;;;5049561;28;20092;-76
2022/04/23 08:18:08;;;;;;;5.97;4.80;;;10.80;61.90;;;;;;5052780;28;20060;-76
2022/04/23 08:20:34;;;;;;;7.57;4.68;;;10.90;62.20;;;;;;5068713;28;20025;-76
2022/04/23 08:23:00;;;;;;;5.45;4.95;;;10.80;62.00;;;;;;5053140;28;20033;-76
2022/04/23 08:25:25;;;;;;;5.45;4.60;;;10.80;61.60;;;;;;5063719;28;20017;-76
2022/04/23 08:27:53;;;;;;;5.38;4.88;;;10.70;61.60;;;;;;5052773;28;20517;-75
2022/04/23 08:30:35;;;;;;;6.03;5.05;;;10.90;62.10;;;;;;5053245;28;20028;-75
2022/04/23 08:33:07;;;;;;;5.75;5.20;;;10.90;62.00;;;;;;5052614;28;20087;-75
2022/04/23 08:35:34;;;;;;;5.30;4.80;;;11.20;61.70;;;;;;5051145;28;20034;-75
2022/04/23 08:38:00;;;;;;;6.15;5.55;;;11.10;61.10;;;;;;5051092;28;20478;-75
2022/04/23 08:40:36;;;;;;;9.15;6.05;;;11.10;60.80;;;;;;5051179;28;20021;-76
2022/04/23 08:43:02;;;;;;;7.63;5.90;;;10.90;60.80;;;;;;5052176;28;20036;-76
2022/04/23 08:45:30;;;;;;;13.73;8.77;;;10.70;61.20;;;;;;5052408;28;20021;-75
2022/04/23 08:47:59;;;;;;;9.93;7.10;;;10.80;61.50;;;;;;5050276;28;20037;-76
2022/04/23 08:50:26;;;;;;;7.35;5.75;;;11.10;61.20;;;;;;5043143;28;20039;-76
2022/04/23 08:52:54;;;;;;;6.93;5.57;;;11.10;60.40;;;;;;5048963;28;20029;-76
2022/04/23 08:55:20;;;;;;;7.93;6.03;;;11.50;60.00;;;;;;5051150;28;20025;-75
2022/04/23 08:57:46;;;;;;;6.80;6.05;;;11.90;60.00;;;;;;5048125;28;20044;-75
2022/04/23 09:00:14;;;;;;;7.60;6.15;;;11.80;59.00;;;;;;5048926;28;20017;-75
2022/04/23 09:02:41;;;;;;;6.97;6.03;;;11.90;59.80;;;;;;5047925;28;20098;-76
2022/04/23 09:05:07;;;;;;;7.70;6.35;;;11.70;59.50;;;;;;5048452;28;20730;-76
2022/04/23 09:07:33;;;;;;;9.25;6.75;;;11.60;59.40;;;;;;5051224;28;20087;-76
2022/04/23 09:09:59;;;;;;;12.18;7.07;;;11.50;59.50;;;;;;5030223;28;20033;-76
2022/04/23 09:12:27;;;;;;;8.13;6.68;;;11.80;60.20;;;;;;5032387;28;20037;-76
2022/04/23 09:15:04;;;;;;;9.43;7.47;;;12.10;59.50;;;;;;5030849;28;20041;-76
2022/04/23 09:25:44;;;;;;;8.18;6.63;;;12.50;57.10;;;;;;5039700;28;20035;-76
2022/04/23 09:28:17;;;;;;;7.05;6.38;;;12.90;56.60;;;;;;5049792;28;20094;-77
2022/04/23 09:30:44;;;;;;;10.15;7.72;;;13.00;55.70;;;;;;5048860;28;20021;-76
2022/04/23 09:33:10;;;;;;;10.65;7.30;;;12.50;57.20;;;;;;5050122;28;20037;-77
2022/04/23 09:35:50;;;;;;;9.70;7.95;;;12.30;57.80;;;;;;5050619;28;20025;-76
2022/04/23 09:38:18;;;;;;;12.18;8.52;;;12.10;58.90;;;;;;5050032;28;20041;-77
2022/04/23 09:40:50;;;;;;;10.32;7.72;;;12.20;59.80;;;;;;5050592;28;20049;-76
2022/04/23 09:43:23;;;;;;;;;;;12.70;59.10;;;;;;5050466;28;20135;-75
2022/04/23 09:45:59;;;;;;;7.80;6.83;;;13.10;57.80;;;;;;5050644;28;19909;-74
2022/04/23 09:48:25;;;;;;;9.15;7.20;;;13.20;56.50;;;;;;5051648;28;20796;-75
2022/04/23 09:50:51;;;;;;;7.82;6.03;;;13.10;56.00;;;;;;5050329;28;20087;-76
2022/04/23 09:53:19;;;;;;;9.82;6.13;;;12.70;56.10;;;;;;5051404;28;20116;-76
2022/04/23 09:55:46;;;;;;;8.95;5.00;;;13.10;55.60;;;;;;5050218;28;20025;-76
2022/04/23 09:58:13;;;;;;;6.85;5.38;;;13.20;54.00;;;;;;5050449;28;20033;-76
2022/04/23 10:00:41;;;;;;;6.38;5.72;;;13.20;54.70;;;;;;5051700;28;20025;-75
2022/04/23 10:03:07;;;;;;;6.50;5.85;;;13.30;55.10;;;;;;5051844;28;20390;-76
2022/04/23 10:05:46;;;;;;;6.85;5.90;;;13.30;55.70;;;;;;5050748;28;20070;-75
2022/04/23 10:08:17;;;;;;;7.22;6.53;;;13.40;54.40;;;;;;5050987;28;20056;-76
2022/04/23 10:11:06;;;;;;;8.23;7.32;;;13.30;54.50;;;;;;5051492;28;20478;-77
2022/04/23 10:13:34;;;;;;;7.70;6.72;;;13.30;54.80;;;;;;5051962;28;20041;-77
2022/04/23 10:16:02;;;;;;;7.85;7.10;;;13.40;54.50;;;;;;5050230;28;20091;-76
2022/04/23 10:18:28;;;;;;;7.05;5.80;;;13.30;54.80;;;;;;5046673;28;20095;-76
2022/04/23 10:20:58;;;;;;;6.78;6.10;;;13.20;54.20;;;;;;5034161;28;20052;-77
2022/04/23 10:23:51;;;;;;;6.78;5.85;;;13.00;54.40;;;;;;5040446;28;20033;-76
2022/04/23 10:26:48;;;;;;;7.03;6.32;;;13.10;55.20;;;;;;5042833;28;20029;-77
2022/04/23 10:29:20;;;;;;;5.85;5.35;;;13.50;55.40;;;;;;5047182;28;20099;-75
2022/04/23 10:32:08;;;;;;;10.88;8.07;;;13.50;55.00;;;;;;5049500;28;20055;-76
2022/04/23 10:34:35;;;;;;;8.13;7.32;;;13.40;54.20;;;;;;5049658;28;20041;-76
2022/04/23 10:37:30;;;;;;;8.65;6.35;;;13.60;54.10;;;;;;5049808;28;20047;-75
2022/04/23 10:39:55;;;;;;;8.10;6.88;;;13.50;54.30;;;;;;5048935;28;20048;-75
2022/04/23 10:42:23;;;;;;;7.57;6.82;;;13.30;55.00;;;;;;5050290;28;20421;-75
2022/04/23 10:44:54;;;;;;;7.72;6.88;;;13.10;55.50;;;;;;5049267;28;20052;-75
2022/04/23 10:47:35;;;;;;;7.75;6.72;;;12.80;55.50;;;;;;5051526;28;20124;-75
2022/04/23 10:50:13;;;;;;;8.70;7.28;;;13.30;56.10;;;;;;5046751;28;20041;-75
2022/04/23 10:52:43;;;;;;;8.45;7.15;;;13.70;55.10;;;;;;5047146;28;20029;-75
2022/04/23 10:55:09;;;;;;;8.82;7.93;;;13.60;54.10;;;;;;5051866;28;20929;-75
2022/04/23 10:57:35;;;;;;;7.68;6.80;;;13.20;54.40;;;;;;5050904;28;20049;-75
2022/04/23 11:00:16;;;;;;;8.05;6.55;;;13.10;54.70;;;;;;5052365;28;20193;-75
2022/04/23 11:02:46;;;;;;;6.90;6.20;;;13.50;55.10;;;;;;5053666;28;20115;-75
2022/04/23 11:13:57;;;;;;;8.20;6.65;;;13.90;53.50;;;;;;5042450;28;20039;-75
2022/04/23 11:16:24;;;;;;;7.57;6.88;;;13.50;53.70;;;;;;5040284;28;20052;-75
2022/04/23 11:18:52;;;;;;;7.70;7.00;;;13.70;53.70;;;;;;5053178;28;20035;-76
2022/04/23 11:21:26;;;;;;;6.78;6.07;;;13.80;53.00;;;;;;5052442;28;20021;-73
2022/04/23 11:23:54;;;;;;;7.78;6.65;;;14.10;52.90;;;;;;5054101;28;20072;-75
2022/04/23 11:26:22;;;;;;;7.13;6.20;;;14.30;51.80;;;;;;5054204;28;20031;-76
2022/04/23 11:28:58;;;;;;;7.28;6.63;;;14.30;52.20;;;;;;5054121;28;20390;-76
2022/04/23 11:31:24;;;;;;;6.40;5.80;;;14.60;52.30;;;;;;5036340;28;20107;-75
2022/04/23 11:33:53;;;;;;;6.63;6.03;;;14.70;52.50;;;;;;5032512;28;20039;-80
2022/04/23 11:36:19;;;;;;;12.43;8.88;;;14.10;51.90;;;;;;5042932;28;20029;-79
2022/04/23 11:38:45;;;;;;;8.75;6.80;;;13.90;52.90;;;;;;5034879;28;20045;-79
2022/04/23 11:41:24;;;;;;;6.57;5.95;;;13.80;52.60;;;;;;5032271;28;20606;-78
2022/04/23 11:43:50;;;;;;;7.07;6.47;;;14.00;52.60;;;;;;5032728;28;20039;-79
2022/04/23 11:46:16;;;;;;;7.07;5.22;;;14.00;52.00;;;;;;5032756;28;20029;-81
2022/04/23 11:48:49;;;;;;;5.95;5.35;;;13.70;52.60;;;;;;5032687;28;20483;-80
2022/04/23 11:51:16;;;;;;;10.18;8.25;;;13.60;52.10;;;;;;5031787;28;20104;-77
2022/04/23 11:53:49;;;;;;;6.97;6.32;;;13.80;53.00;;;;;;5034044;28;20495;-77
2022/04/23 11:56:23;;;;;;;10.63;7.75;;;13.70;53.30;;;;;;5031138;28;20121;-76
2022/04/23 11:58:51;;;;;;;9.93;6.63;;;13.80;53.80;;;;;;5049415;28;20024;-77
2022/04/23 12:01:16;;;;;;;7.43;6.55;;;13.60;52.90;;;;;;5053575;28;20045;-77
2022/04/23 12:03:53;;;;;;;9.32;6.72;;;13.50;52.90;;;;;;5052583;28;20025;-77
2022/04/23 12:06:18;;;;;;;8.07;6.35;;;13.70;52.50;;;;;;5050668;28;20497;-77
2022/04/23 12:08:44;;;;;;;7.28;6.28;;;13.60;51.10;;;;;;5053481;28;20037;-77
2022/04/23 12:11:20;;;;;;;10.30;8.00;;;13.60;53.40;;;;;;5053120;28;20037;-77
2022/04/23 12:13:49;;;;;;;10.60;8.27;;;13.50;53.30;;;;;;5053448;28;20487;-77
2022/04/23 12:16:31;;;;;;;11.52;7.82;;;13.20;53.90;;;;;;5051340;28;20072;-77
2022/04/23 12:19:10;;;;;;;10.32;6.78;;;13.20;54.00;;;;;;5053442;28;20112;-75
2022/04/23 12:21:37;;;;;;;9.52;7.32;;;13.20;54.90;;;;;;5052762;28;20028;-76
2022/04/23 12:24:04;;;;;;;12.25;8.15;;;13.40;53.80;;;;;;5053212;28;20025;-76
2022/04/23 12:26:31;;;;;;;16.08;8.80;;;13.90;53.40;;;;;;5053161;28;20572;-76
2022/04/23 12:42:30;;;;;;;13.02;9.40;;;13.70;52.40;;;;;;5052454;28;20112;-76
2022/04/23 12:44:55;;;;;;;11.10;8.77;;;13.70;52.80;;;;;;5050910;28;20048;-76
2022/04/23 12:47:47;;;;;;;11.55;9.35;;;13.70;53.20;;;;;;5051793;28;20029;-77
2022/04/23 12:50:26;;;;;;;9.63;7.75;;;13.80;53.40;;;;;;5048211;28;20041;-76
2022/04/23 12:52:52;;;;;;;12.95;9.40;;;13.70;52.30;;;;;;5051451;28;20528;-77
2022/04/23 12:55:18;;;;;;;11.15;7.85;;;13.70;52.30;;;;;;5051467;28;20021;-77
2022/04/23 12:58:02;;;;;;;6.90;5.68;;;13.60;51.90;;;;;;5052909;28;20078;-77
2022/04/23 13:00:30;;;;;;;6.10;5.50;;;13.50;51.40;;;;;;5052763;28;20033;-76
2022/04/23 13:02:59;;;;;;;8.20;6.70;;;13.60;51.50;;;;;;5051493;28;20100;-77
2022/04/23 13:05:25;;;;;;;9.73;7.47;;;13.60;51.80;;;;;;5050943;28;20037;-76
2022/04/23 13:10:36;;;;;;;9.75;6.88;;;13.50;53.60;;;;;;5052576;28;20577;-77
2022/04/23 13:13:03;;;;;;;16.73;12.43;;;13.30;53.50;;;;;;5051177;28;20048;-77
2022/04/23 13:15:29;;;;;;;10.23;7.35;;;13.30;53.70;;;;;;5046059;28;20045;-77
2022/04/23 13:17:55;;;;;;;7.63;6.78;;;13.20;54.60;;;;;;5031076;28;20021;-76
2022/04/23 13:20:21;;;;;;;6.95;5.82;;;13.20;55.70;;;;;;5030443;28;20553;-76
2022/04/23 13:22:47;;;;;;;7.80;7.00;;;13.20;55.90;;;;;;5031294;28;20028;-76
2022/04/23 13:25:15;;;;;;;9.18;6.80;;;13.20;55.70;;;;;;5030821;28;20108;-76
2022/04/23 13:27:41;;;;;;;7.18;6.25;;;13.20;55.40;;;;;;5031344;28;20017;-77
2022/04/23 13:30:07;;;;;;;7.25;6.55;;;13.20;55.30;;;;;;5031982;28;20042;-77